sensor_id;sensor_type;location;lat;lon;timestamp;pressure;altitude;pressure_sealevel;temperature;humidity
17260;BME280;8746;49.230;9.220;2024-03-22T00:02:15;100594.75;;;6.48;100.00
17260;BME280;8746;49.230;9.220;2024-03-22T00:04:41;100596.56;;;6.44;100.00
17260;BME280;8746;49.230;9.220;2024-03-22T00:07:06;100603.69;;;6.33;100.00
17260;BME280;8746;49.230;9.220;2024-03-22T00:09:31;100592.34;;;6.31;100.00
17260;BME280;8746;49.230;9.220;2024-03-22T00:11:57;100599.34;;;6.30;100.00
17260;BME280;8746;49.230;9.220;2024-03-22T00:14:22;100594.91;;;6.35;100.00
17260;BME280;8746;49.230;9.220;2024-03-22T00:16:47;100586.13;;;6.39;100.00
17260;BME280;8746;49.230;9.220;2024-03-22T00:19:13;100587.09;;;6.31;100.00
17260;BME280;8746;49.230;9.220;2024-03-22T00:21:38;100572.28;;;6.28;100.00
17260;BME280;8746;49.230;9.220;2024-03-22T00:24:04;100581.94;;;6.24;100.00
17260;BME280;8746;49.230;9.220;2024-03-22T00:26:29;100568.97;;;6.14;100.00
17260;BME280;8746;49.230;9.220;2024-03-22T00:28:54;100563.84;;;6.04;100.00
17260;BME280;8746;49.230;9.220;2024-03-22T00:31:22;100567.38;;;6.00;100.00
17260;BME280;8746;49.230;9.220;2024-03-22T00:33:48;100564.78;;;5.97;100.00
17260;BME280;8746;49.230;9.220;2024-03-22T00:36:13;100561.31;;;5.93;100.00
17260;BME280;8746;49.230;9.220;2024-03-22T00:38:38;100565.69;;;5.94;100.00
17260;BME280;8746;49.230;9.220;2024-03-22T00:41:04;100570.97;;;5.90;100.00
17260;BME280;8746;49.230;9.220;2024-03-22T00:43:29;100565.75;;;5.87;100.00
17260;BME280;8746;49.230;9.220;2024-03-22T00:45:55;100558.88;;;5.76;100.00
17260;BME280;8746;49.230;9.220;2024-03-22T00:48:20;100553.66;;;5.75;100.00
17260;BME280;8746;49.230;9.220;2024-03-22T00:50:46;100555.50;;;5.67;100.00
17260;BME280;8746;49.230;9.220;2024-03-22T00:53:11;100554.69;;;5.58;100.00
17260;BME280;8746;49.230;9.220;2024-03-22T00:55:37;100551.19;;;5.59;100.00
17260;BME280;8746;49.230;9.220;2024-03-22T00:58:03;100543.38;;;5.58;100.00
17260;BME280;8746;49.230;9.220;2024-03-22T01:00:28;100539.00;;;5.55;100.00
17260;BME280;8746;49.230;9.220;2024-03-22T01:02:53;100546.88;;;5.57;100.00
17260;BME280;8746;49.230;9.220;2024-03-22T01:05:19;100541.72;;;5.46;100.00
17260;BME280;8746;49.230;9.220;2024-03-22T01:07:44;100531.28;;;5.46;100.00
17260;BME280;8746;49.230;9.220;2024-03-22T01:10:10;100538.22;;;5.49;100.00
17260;BME280;8746;49.230;9.220;2024-03-22T01:12:36;100526.94;;;5.42;100.00
17260;BME280;8746;49.230;9.220;2024-03-22T01:15:03;100520.81;;;5.46;100.00
17260;BME280;8746;49.230;9.220;2024-03-22T01:17:28;100525.19;;;5.42;100.00
17260;BME280;8746;49.230;9.220;2024-03-22T01:19:53;100518.31;;;5.32;100.00
17260;BME280;8746;49.230;9.220;2024-03-22T01:22:19;100529.66;;;5.33;100.00
17260;BME280;8746;49.230;9.220;2024-03-22T01:24:45;100527.16;;;5.20;100.00
17260;BME280;8746;49.230;9.220;2024-03-22T01:27:11;100524.59;;;5.14;100.00
17260;BME280;8746;49.230;9.220;2024-03-22T01:29:36;100521.97;;;5.12;100.00
17260;BME280;8746;49.230;9.220;2024-03-22T01:32:02;100521.97;;;5.14;100.00
17260;BME280;8746;49.230;9.220;2024-03-22T01:34:27;100521.19;;;5.04;100.00
17260;BME280;8746;49.230;9.220;2024-03-22T01:36:53;100502.03;;;5.01;100.00
17260;BME280;8746;49.230;9.220;2024-03-22T01:39:20;100509.94;;;4.94;100.00
17260;BME280;8746;49.230;9.220;2024-03-22T01:41:49;100509.94;;;4.91;100.00
17260;BME280;8746;49.230;9.220;2024-03-22T01:44:14;100508.19;;;4.90;100.00
17260;BME280;8746;49.230;9.220;2024-03-22T01:46:40;100507.31;;;4.93;100.00
17260;BME280;8746;49.230;9.220;2024-03-22T01:49:07;100504.75;;;4.88;100.00
17260;BME280;8746;49.230;9.220;2024-03-22T01:51:34;100500.41;;;4.84;100.00
17260;BME280;8746;49.230;9.220;2024-03-22T01:54:01;100499.53;;;4.88;100.00
17260;BME280;8746;49.230;9.220;2024-03-22T01:56:27;100497.78;;;4.86;100.00
17260;BME280;8746;49.230;9.220;2024-03-22T01:58:53;100494.34;;;4.82;100.00
17260;BME280;8746;49.230;9.220;2024-03-22T02:01:19;100495.19;;;4.84;100.00
17260;BME280;8746;49.230;9.220;2024-03-22T02:03:44;100493.47;;;4.81;100.00
17260;BME280;8746;49.230;9.220;2024-03-22T02:06:10;100490.84;;;4.80;100.00
17260;BME280;8746;49.230;9.220;2024-03-22T02:08:35;100489.97;;;4.82;100.00
17260;BME280;8746;49.230;9.220;2024-03-22T02:11:01;100484.69;;;4.89;100.00
17260;BME280;8746;49.230;9.220;2024-03-22T02:13:26;100483.88;;;4.84;100.00
17260;BME280;8746;49.230;9.220;2024-03-22T02:15:52;100480.41;;;4.80;100.00
17260;BME280;8746;49.230;9.220;2024-03-22T02:18:17;100471.75;;;4.70;100.00
17260;BME280;8746;49.230;9.220;2024-03-22T02:20:42;100469.19;;;4.64;100.00
17260;BME280;8746;49.230;9.220;2024-03-22T02:23:08;100463.03;;;4.70;100.00
17260;BME280;8746;49.230;9.220;2024-03-22T02:25:33;100477.03;;;4.61;100.00
17260;BME280;8746;49.230;9.220;2024-03-22T02:27:58;100478.84;;;4.54;100.00
17260;BME280;8746;49.230;9.220;2024-03-22T02:30:24;100470.16;;;4.52;100.00
17260;BME280;8746;49.230;9.220;2024-03-22T02:32:49;100476.25;;;4.51;100.00
17260;BME280;8746;49.230;9.220;2024-03-22T02:35:14;100480.63;;;4.49;100.00
17260;BME280;8746;49.230;9.220;2024-03-22T02:37:40;100468.44;;;4.45;100.00
17260;BME280;8746;49.230;9.220;2024-03-22T02:40:06;100473.72;;;4.42;100.00
17260;BME280;8746;49.230;9.220;2024-03-22T02:42:31;100471.97;;;4.42;100.00
17260;BME280;8746;49.230;9.220;2024-03-22T02:44:57;100471.94;;;4.44;100.00
17260;BME280;8746;49.230;9.220;2024-03-22T02:47:22;100472.00;;;4.33;100.00
17260;BME280;8746;49.230;9.220;2024-03-22T02:49:47;100466.75;;;4.38;100.00
17260;BME280;8746;49.230;9.220;2024-03-22T02:52:12;100462.41;;;4.35;100.00
17260;BME280;8746;49.230;9.220;2024-03-22T02:54:38;100458.13;;;4.29;100.00
17260;BME280;8746;49.230;9.220;2024-03-22T02:57:03;100461.53;;;4.38;100.00
17260;BME280;8746;49.230;9.220;2024-03-22T02:59:29;100453.72;;;4.36;100.00
17260;BME280;8746;49.230;9.220;2024-03-22T03:01:54;100451.94;;;4.37;100.00
17260;BME280;8746;49.230;9.220;2024-03-22T03:04:19;100453.69;;;4.38;100.00
17260;BME280;8746;49.230;9.220;2024-03-22T03:06:45;100456.28;;;4.41;100.00
17260;BME280;8746;49.230;9.220;2024-03-22T03:09:11;100454.56;;;4.40;100.00
17260;BME280;8746;49.230;9.220;2024-03-22T03:11:39;100459.78;;;4.40;100.00
17260;BME280;8746;49.230;9.220;2024-03-22T03:14:05;100452.91;;;4.29;100.00
17260;BME280;8746;49.230;9.220;2024-03-22T03:16:30;100449.41;;;4.27;100.00
17260;BME280;8746;49.230;9.220;2024-03-22T03:18:55;100446.75;;;4.30;100.00
17260;BME280;8746;49.230;9.220;2024-03-22T03:21:21;100444.19;;;4.27;100.00
17260;BME280;8746;49.230;9.220;2024-03-22T03:23:46;100446.81;;;4.20;100.00
17260;BME280;8746;49.230;9.220;2024-03-22T03:26:12;100445.09;;;4.20;100.00
17260;BME280;8746;49.230;9.220;2024-03-22T03:28:37;100443.38;;;4.14;100.00
17260;BME280;8746;49.230;9.220;2024-03-22T03:31:03;100451.25;;;4.10;100.00
17260;BME280;8746;49.230;9.220;2024-03-22T03:33:28;100447.81;;;4.06;100.00
17260;BME280;8746;49.230;9.220;2024-03-22T03:35:54;100451.28;;;4.07;100.00
17260;BME280;8746;49.230;9.220;2024-03-22T03:38:19;100446.00;;;4.10;100.00
17260;BME280;8746;49.230;9.220;2024-03-22T03:40:44;100442.56;;;4.05;100.00
17260;BME280;8746;49.230;9.220;2024-03-22T03:43:10;100444.31;;;4.04;100.00
17260;BME280;8746;49.230;9.220;2024-03-22T03:45:38;100445.19;;;4.08;100.00
17260;BME280;8746;49.230;9.220;2024-03-22T03:48:04;100438.22;;;4.07;100.00
17260;BME280;8746;49.230;9.220;2024-03-22T03:50:29;100446.88;;;4.12;100.00
17260;BME280;8746;49.230;9.220;2024-03-22T03:52:55;100443.38;;;4.14;100.00
17260;BME280;8746;49.230;9.220;2024-03-22T03:55:22;100443.41;;;4.16;100.00
17260;BME280;8746;49.230;9.220;2024-03-22T03:57:49;100428.56;;;4.18;100.00
17260;BME280;8746;49.230;9.220;2024-03-22T04:00:14;100433.78;;;4.23;100.00
17260;BME280;8746;49.230;9.220;2024-03-22T04:02:40;100434.59;;;4.28;100.00
17260;BME280;8746;49.230;9.220;2024-03-22T04:05:05;100432.88;;;4.28;100.00
17260;BME280;8746;49.230;9.220;2024-03-22T04:07:31;100429.38;;;4.31;100.00
17260;BME280;8746;49.230;9.220;2024-03-22T04:09:56;100427.59;;;4.39;100.00
17260;BME280;8746;49.230;9.220;2024-03-22T04:12:21;100433.63;;;4.43;100.00
17260;BME280;8746;49.230;9.220;2024-03-22T04:14:47;100430.13;;;4.44;100.00
17260;BME280;8746;49.230;9.220;2024-03-22T04:17:12;100438.78;;;4.52;100.00
17260;BME280;8746;49.230;9.220;2024-03-22T04:19:37;100433.56;;;4.52;100.00
17260;BME280;8746;49.230;9.220;2024-03-22T04:22:03;100433.56;;;4.55;100.00
17260;BME280;8746;49.230;9.220;2024-03-22T04:24:29;100441.41;;;4.55;100.00
17260;BME280;8746;49.230;9.220;2024-03-22T04:26:54;100442.19;;;4.62;100.00
17260;BME280;8746;49.230;9.220;2024-03-22T04:29:19;100438.66;;;4.69;100.00
17260;BME280;8746;49.230;9.220;2024-03-22T04:31:45;100443.91;;;4.68;100.00
17260;BME280;8746;49.230;9.220;2024-03-22T04:34:10;100449.09;;;4.71;100.00
17260;BME280;8746;49.230;9.220;2024-03-22T04:36:36;100448.16;;;4.78;100.00
17260;BME280;8746;49.230;9.220;2024-03-22T04:39:01;100454.28;;;4.78;100.00
17260;BME280;8746;49.230;9.220;2024-03-22T04:41:27;100437.63;;;4.86;100.00
17260;BME280;8746;49.230;9.220;2024-03-22T04:43:52;100442.88;;;4.84;100.00
17260;BME280;8746;49.230;9.220;2024-03-22T04:46:18;100445.53;;;4.81;100.00
17260;BME280;8746;49.230;9.220;2024-03-22T04:48:43;100435.09;;;4.81;100.00
17260;BME280;8746;49.230;9.220;2024-03-22T04:51:09;100437.66;;;4.87;100.00
17260;BME280;8746;49.230;9.220;2024-03-22T04:53:34;100425.53;;;4.75;100.00
17260;BME280;8746;49.230;9.220;2024-03-22T04:55:59;100427.31;;;4.72;100.00
17260;BME280;8746;49.230;9.220;2024-03-22T04:58:25;100428.16;;;4.75;100.00
17260;BME280;8746;49.230;9.220;2024-03-22T05:00:56;100428.19;;;4.71;100.00
17260;BME280;8746;49.230;9.220;2024-03-22T05:03:21;100421.22;;;4.73;100.00
17260;BME280;8746;49.230;9.220;2024-03-22T05:05:47;100421.25;;;4.68;100.00
17260;BME280;8746;49.230;9.220;2024-03-22T05:08:12;100425.59;;;4.66;100.00
17260;BME280;8746;49.230;9.220;2024-03-22T05:10:37;100416.03;;;4.63;100.00
17260;BME280;8746;49.230;9.220;2024-03-22T05:13:03;100417.75;;;4.69;100.00
17260;BME280;8746;49.230;9.220;2024-03-22T05:15:28;100418.69;;;4.60;100.00
17260;BME280;8746;49.230;9.220;2024-03-22T05:17:56;100411.69;;;4.65;100.00
17260;BME280;8746;49.230;9.220;2024-03-22T05:20:22;100413.38;;;4.73;100.00
17260;BME280;8746;49.230;9.220;2024-03-22T05:22:47;100408.09;;;4.76;100.00
17260;BME280;8746;49.230;9.220;2024-03-22T05:25:13;100408.94;;;4.81;100.00
17260;BME280;8746;49.230;9.220;2024-03-22T05:27:40;100401.03;;;4.86;100.00
17260;BME280;8746;49.230;9.220;2024-03-22T05:30:06;100404.50;;;4.91;100.00
17260;BME280;8746;49.230;9.220;2024-03-22T05:32:32;100399.25;;;4.89;100.00
17260;BME280;8746;49.230;9.220;2024-03-22T05:34:57;100398.34;;;4.95;100.00
17260;BME280;8746;49.230;9.220;2024-03-22T05:37:23;100386.97;;;4.99;100.00
17260;BME280;8746;49.230;9.220;2024-03-22T05:39:48;100391.28;;;5.05;100.00
17260;BME280;8746;49.230;9.220;2024-03-22T05:42:14;100389.53;;;5.07;100.00
17260;BME280;8746;49.230;9.220;2024-03-22T05:44:39;100386.84;;;5.10;100.00
17260;BME280;8746;49.230;9.220;2024-03-22T05:47:05;100383.44;;;5.05;100.00
17260;BME280;8746;49.230;9.220;2024-03-22T05:49:30;100393.25;;;4.79;100.00
17260;BME280;8746;49.230;9.220;2024-03-22T05:51:55;100391.41;;;4.92;100.00
17260;BME280;8746;49.230;9.220;2024-03-22T05:54:21;100386.25;;;4.85;100.00
17260;BME280;8746;49.230;9.220;2024-03-22T05:56:46;100383.53;;;4.95;100.00
17260;BME280;8746;49.230;9.220;2024-03-22T05:59:11;100386.09;;;5.02;100.00
17260;BME280;8746;49.230;9.220;2024-03-22T06:01:37;100381.59;;;5.14;100.00
17260;BME280;8746;49.230;9.220;2024-03-22T06:04:04;100383.28;;;5.19;100.00
17260;BME280;8746;49.230;9.220;2024-03-22T06:06:29;100377.97;;;5.26;100.00
17260;BME280;8746;49.230;9.220;2024-03-22T06:08:54;100379.53;;;5.41;100.00
17260;BME280;8746;49.230;9.220;2024-03-22T06:11:22;100385.56;;;5.46;100.00
17260;BME280;8746;49.230;9.220;2024-03-22T06:13:47;100374.13;;;5.55;100.00
17260;BME280;8746;49.230;9.220;2024-03-22T06:16:13;100381.22;;;5.47;100.00
17260;BME280;8746;49.230;9.220;2024-03-22T06:18:39;100371.56;;;5.52;100.00
17260;BME280;8746;49.230;9.220;2024-03-22T06:21:04;100374.13;;;5.55;100.00
17260;BME280;8746;49.230;9.220;2024-03-22T06:23:30;100385.53;;;5.51;100.00
17260;BME280;8746;49.230;9.220;2024-03-22T06:25:56;100375.97;;;5.49;100.00
17260;BME280;8746;49.230;9.220;2024-03-22T06:28:22;100383.69;;;5.59;100.00
17260;BME280;8746;49.230;9.220;2024-03-22T06:30:47;100385.25;;;5.73;100.00
17260;BME280;8746;49.230;9.220;2024-03-22T06:33:13;100380.25;;;5.56;100.00
17260;BME280;8746;49.230;9.220;2024-03-22T06:35:38;100369.81;;;5.51;100.00
17260;BME280;8746;49.230;9.220;2024-03-22T06:38:04;100372.13;;;5.77;100.00
17260;BME280;8746;49.230;9.220;2024-03-22T06:40:29;100368.59;;;5.80;100.00
17260;BME280;8746;49.230;9.220;2024-03-22T06:42:55;100373.81;;;5.78;100.00
17260;BME280;8746;49.230;9.220;2024-03-22T06:45:20;100359.75;;;5.87;100.00
17260;BME280;8746;49.230;9.220;2024-03-22T06:47:46;100358.03;;;5.85;100.00
17260;BME280;8746;49.230;9.220;2024-03-22T06:50:11;100351.84;;;5.90;100.00
17260;BME280;8746;49.230;9.220;2024-03-22T06:52:37;100352.66;;;5.94;100.00
17260;BME280;8746;49.230;9.220;2024-03-22T06:55:02;100344.78;;;5.96;100.00
17260;BME280;8746;49.230;9.220;2024-03-22T06:57:28;100346.50;;;6.01;100.00
17260;BME280;8746;49.230;9.220;2024-03-22T06:59:54;100346.38;;;6.09;100.00
17260;BME280;8746;49.230;9.220;2024-03-22T07:02:20;100344.63;;;6.08;100.00
17260;BME280;8746;49.230;9.220;2024-03-22T07:04:46;100346.25;;;6.15;100.00
17260;BME280;8746;49.230;9.220;2024-03-22T07:07:11;100342.75;;;6.16;100.00
17260;BME280;8746;49.230;9.220;2024-03-22T07:09:36;100345.19;;;6.29;100.00
17260;BME280;8746;49.230;9.220;2024-03-22T07:12:02;100348.63;;;6.34;100.00
17260;BME280;8746;49.230;9.220;2024-03-22T07:14:27;100343.03;;;6.54;100.00
17260;BME280;8746;49.230;9.220;2024-03-22T07:16:53;100342.28;;;6.46;100.00
17260;BME280;8746;49.230;9.220;2024-03-22T07:19:22;100335.84;;;6.65;100.00
17260;BME280;8746;49.230;9.220;2024-03-22T07:21:47;100340.88;;;6.76;100.00
17260;BME280;8746;49.230;9.220;2024-03-22T07:24:13;100337.19;;;6.88;100.00
17260;BME280;8746;49.230;9.220;2024-03-22T07:26:38;100336.84;;;7.06;100.00
17260;BME280;8746;49.230;9.220;2024-03-22T07:29:04;100335.13;;;7.04;100.00
17260;BME280;8746;49.230;9.220;2024-03-22T07:31:29;100341.03;;;7.15;100.00
17260;BME280;8746;49.230;9.220;2024-03-22T07:33:55;100329.53;;;7.22;100.00
17260;BME280;8746;49.230;9.220;2024-03-22T07:36:21;100325.03;;;7.29;100.00
17260;BME280;8746;49.230;9.220;2024-03-22T07:38:46;100330.03;;;7.40;100.00
17260;BME280;8746;49.230;9.220;2024-03-22T07:41:11;100323.50;;;7.60;100.00
17260;BME280;8746;49.230;9.220;2024-03-22T07:43:37;100320.81;;;7.63;100.00
17260;BME280;8746;49.230;9.220;2024-03-22T07:46:02;100319.00;;;7.65;100.00
17260;BME280;8746;49.230;9.220;2024-03-22T07:48:28;100312.44;;;7.84;100.00
17260;BME280;8746;49.230;9.220;2024-03-22T07:50:57;100317.22;;;8.05;100.00
17260;BME280;8746;49.230;9.220;2024-03-22T07:53:23;100309.09;;;8.15;100.00
17260;BME280;8746;49.230;9.220;2024-03-22T07:55:48;100312.25;;;8.30;100.00
17260;BME280;8746;49.230;9.220;2024-03-22T07:58:14;100310.88;;;8.13;100.00
17260;BME280;8746;49.230;9.220;2024-03-22T08:00:39;100313.34;;;8.21;100.00
17260;BME280;8746;49.230;9.220;2024-03-22T08:03:04;100314.94;;;8.27;100.00
17260;BME280;8746;49.230;9.220;2024-03-22T08:05:29;100310.34;;;8.35;100.00
17260;BME280;8746;49.230;9.220;2024-03-22T08:07:55;100310.19;;;8.41;100.00
17260;BME280;8746;49.230;9.220;2024-03-22T08:10:20;100307.34;;;8.52;100.00
17260;BME280;8746;49.230;9.220;2024-03-22T08:12:45;100298.91;;;8.72;100.00
17260;BME280;8746;49.230;9.220;2024-03-22T08:15:11;100290.56;;;8.89;100.00
17260;BME280;8746;49.230;9.220;2024-03-22T08:17:36;100286.78;;;9.00;100.00
17260;BME280;8746;49.230;9.220;2024-03-22T08:20:02;100283.66;;;9.17;100.00
17260;BME280;8746;49.230;9.220;2024-03-22T08:22:28;100282.28;;;9.35;100.00
17260;BME280;8746;49.230;9.220;2024-03-22T08:24:53;100285.38;;;9.48;100.00
17260;BME280;8746;49.230;9.220;2024-03-22T08:27:21;100281.72;;;9.52;100.00
17260;BME280;8746;49.230;9.220;2024-03-22T08:29:46;100277.22;;;9.57;100.00
17260;BME280;8746;49.230;9.220;2024-03-22T08:32:11;100284.28;;;9.83;100.00
17260;BME280;8746;49.230;9.220;2024-03-22T08:34:37;100280.69;;;10.13;100.00
17260;BME280;8746;49.230;9.220;2024-03-22T08:37:02;100279.81;;;10.40;100.00
17260;BME280;8746;49.230;9.220;2024-03-22T08:39:29;100271.19;;;10.61;100.00
17260;BME280;8746;49.230;9.220;2024-03-22T08:41:55;100274.72;;;10.86;100.00
17260;BME280;8746;49.230;9.220;2024-03-22T08:44:20;100267.66;;;11.11;100.00
17260;BME280;8746;49.230;9.220;2024-03-22T08:46:45;100262.59;;;11.28;100.00
17260;BME280;8746;49.230;9.220;2024-03-22T08:49:11;100262.13;;;11.41;100.00
17260;BME280;8746;49.230;9.220;2024-03-22T08:51:37;100253.41;;;11.61;100.00
17260;BME280;8746;49.230;9.220;2024-03-22T08:54:03;100251.16;;;11.74;100.00
17260;BME280;8746;49.230;9.220;2024-03-22T08:56:29;100246.72;;;11.74;100.00
17260;BME280;8746;49.230;9.220;2024-03-22T08:58:54;100249.25;;;11.77;98.72
17260;BME280;8746;49.230;9.220;2024-03-22T09:01:20;100245.81;;;11.97;100.00
17260;BME280;8746;49.230;9.220;2024-03-22T09:03:46;100247.16;;;12.08;100.00
17260;BME280;8746;49.230;9.220;2024-03-22T09:06:14;100243.97;;;11.99;98.90
17260;BME280;8746;49.230;9.220;2024-03-22T09:08:40;100235.59;;;12.10;99.39
17260;BME280;8746;49.230;9.220;2024-03-22T09:11:05;100230.19;;;12.34;100.00
17260;BME280;8746;49.230;9.220;2024-03-22T09:13:31;100233.38;;;12.42;99.86
17260;BME280;8746;49.230;9.220;2024-03-22T09:15:58;100222.22;;;12.75;99.01
17260;BME280;8746;49.230;9.220;2024-03-22T09:18:24;100221.69;;;13.07;95.49
17260;BME280;8746;49.230;9.220;2024-03-22T09:20:49;100210.66;;;13.16;93.27
17260;BME280;8746;49.230;9.220;2024-03-22T09:23:14;100220.41;;;13.15;94.97
17260;BME280;8746;49.230;9.220;2024-03-22T09:25:40;100209.66;;;13.19;94.73
17260;BME280;8746;49.230;9.220;2024-03-22T09:28:05;100212.25;;;13.20;95.18
17260;BME280;8746;49.230;9.220;2024-03-22T09:30:30;100203.38;;;13.40;92.01
17260;BME280;8746;49.230;9.220;2024-03-22T09:32:56;100206.59;;;13.84;90.58
17260;BME280;8746;49.230;9.220;2024-03-22T09:35:21;100203.88;;;14.20;87.71
17260;BME280;8746;49.230;9.220;2024-03-22T09:37:46;100202.13;;;14.02;87.96
17260;BME280;8746;49.230;9.220;2024-03-22T09:40:12;100197.00;;;14.16;87.15
17260;BME280;8746;49.230;9.220;2024-03-22T09:42:38;100185.59;;;14.14;84.87
17260;BME280;8746;49.230;9.220;2024-03-22T09:45:08;100183.88;;;14.31;85.51
17260;BME280;8746;49.230;9.220;2024-03-22T09:47:36;100177.59;;;14.49;86.00
17260;BME280;8746;49.230;9.220;2024-03-22T09:50:04;100170.59;;;14.64;85.41
17260;BME280;8746;49.230;9.220;2024-03-22T09:52:33;100167.59;;;14.72;83.24
17260;BME280;8746;49.230;9.220;2024-03-22T09:54:58;100158.78;;;14.54;83.79
17260;BME280;8746;49.230;9.220;2024-03-22T09:57:24;100158.75;;;14.71;83.37
17260;BME280;8746;49.230;9.220;2024-03-22T09:59:50;100162.06;;;15.09;81.49
17260;BME280;8746;49.230;9.220;2024-03-22T10:02:16;100161.03;;;14.95;79.14
17260;BME280;8746;49.230;9.220;2024-03-22T10:04:43;100153.56;;;15.02;79.39
17260;BME280;8746;49.230;9.220;2024-03-22T10:07:08;100150.06;;;14.85;79.98
17260;BME280;8746;49.230;9.220;2024-03-22T10:09:38;100147.13;;;14.90;82.06
17260;BME280;8746;49.230;9.220;2024-03-22T10:12:04;100147.72;;;14.79;81.92
17260;BME280;8746;49.230;9.220;2024-03-22T10:14:30;100139.97;;;14.58;81.13
17260;BME280;8746;49.230;9.220;2024-03-22T10:16:56;100140.41;;;14.67;83.27
17260;BME280;8746;49.230;9.220;2024-03-22T10:19:22;100128.50;;;14.74;83.05
17260;BME280;8746;49.230;9.220;2024-03-22T10:21:59;100131.88;;;14.94;83.16
17260;BME280;8746;49.230;9.220;2024-03-22T10:24:25;100128.28;;;15.11;83.47
17260;BME280;8746;49.230;9.220;2024-03-22T10:26:50;100122.00;;;15.28;78.85
17260;BME280;8746;49.230;9.220;2024-03-22T10:29:15;100125.81;;;15.07;81.36
17260;BME280;8746;49.230;9.220;2024-03-22T10:31:41;100121.88;;;15.15;79.91
17260;BME280;8746;49.230;9.220;2024-03-22T10:34:08;100112.22;;;15.44;81.00
17260;BME280;8746;49.230;9.220;2024-03-22T10:36:34;100099.78;;;15.75;78.79
17260;BME280;8746;49.230;9.220;2024-03-22T10:39:00;100099.78;;;15.75;77.10
17260;BME280;8746;49.230;9.220;2024-03-22T10:41:26;100098.13;;;15.89;77.81
17260;BME280;8746;49.230;9.220;2024-03-22T10:43:52;100090.06;;;16.05;74.68
17260;BME280;8746;49.230;9.220;2024-03-22T10:46:20;100089.69;;;16.11;76.81
17260;BME280;8746;49.230;9.220;2024-03-22T10:48:45;100082.22;;;16.17;75.33
17260;BME280;8746;49.230;9.220;2024-03-22T10:51:13;100082.06;;;15.90;77.34
17260;BME280;8746;49.230;9.220;2024-03-22T10:53:40;100082.50;;;16.13;75.43
17260;BME280;8746;49.230;9.220;2024-03-22T10:56:07;100073.06;;;16.07;75.28
17260;BME280;8746;49.230;9.220;2024-03-22T10:58:34;100068.97;;;16.16;74.65
17260;BME280;8746;49.230;9.220;2024-03-22T11:01:04;100066.91;;;16.21;75.16
17260;BME280;8746;49.230;9.220;2024-03-22T11:03:30;100063.38;;;16.35;76.28
17260;BME280;8746;49.230;9.220;2024-03-22T11:05:56;100056.16;;;16.52;75.19
17260;BME280;8746;49.230;9.220;2024-03-22T11:08:29;100053.00;;;16.45;74.58
17260;BME280;8746;49.230;9.220;2024-03-22T11:10:58;100054.09;;;16.70;75.00
17260;BME280;8746;49.230;9.220;2024-03-22T11:13:36;100055.50;;;16.90;72.66
17260;BME280;8746;49.230;9.220;2024-03-22T11:16:01;100043.53;;;16.82;70.87
17260;BME280;8746;49.230;9.220;2024-03-22T11:18:27;100044.59;;;16.65;67.75
17260;BME280;8746;49.230;9.220;2024-03-22T11:20:53;100044.09;;;16.73;64.80
17260;BME280;8746;49.230;9.220;2024-03-22T11:23:19;100040.19;;;16.93;64.97
17260;BME280;8746;49.230;9.220;2024-03-22T11:25:45;100024.69;;;17.13;65.64
17260;BME280;8746;49.230;9.220;2024-03-22T11:28:11;100014.28;;;17.23;65.89
17260;BME280;8746;49.230;9.220;2024-03-22T11:30:37;100010.13;;;17.44;64.17
17260;BME280;8746;49.230;9.220;2024-03-22T11:33:03;100007.41;;;17.06;63.19
17260;BME280;8746;49.230;9.220;2024-03-22T11:35:29;99994.78;;;17.35;61.91
17260;BME280;8746;49.230;9.220;2024-03-22T11:37:54;99995.66;;;17.49;62.98
17260;BME280;8746;49.230;9.220;2024-03-22T11:40:22;99989.09;;;17.27;62.30
17260;BME280;8746;49.230;9.220;2024-03-22T11:42:50;99986.09;;;17.19;60.54
17260;BME280;8746;49.230;9.220;2024-03-22T11:45:18;99992.03;;;16.82;58.28
17260;BME280;8746;49.230;9.220;2024-03-22T11:47:46;99987.34;;;16.58;60.37
17260;BME280;8746;49.230;9.220;2024-03-22T11:50:12;99981.75;;;16.63;61.82
17260;BME280;8746;49.230;9.220;2024-03-22T11:52:41;99971.94;;;16.91;63.98
17260;BME280;8746;49.230;9.220;2024-03-22T11:55:07;99974.47;;;17.20;64.09
17260;BME280;8746;49.230;9.220;2024-03-22T11:57:32;99974.34;;;17.08;65.41
17260;BME280;8746;49.230;9.220;2024-03-22T12:00:02;99958.13;;;17.11;65.69
17260;BME280;8746;49.230;9.220;2024-03-22T12:02:31;99958.72;;;17.17;65.74
17260;BME280;8746;49.230;9.220;2024-03-22T12:04:57;99953.69;;;16.85;65.81
17260;BME280;8746;49.230;9.220;2024-03-22T12:07:23;99951.66;;;16.88;65.34
17260;BME280;8746;49.230;9.220;2024-03-22T12:09:49;99940.25;;;17.13;66.41
17260;BME280;8746;49.230;9.220;2024-03-22T12:12:14;99935.03;;;17.12;63.60
17260;BME280;8746;49.230;9.220;2024-03-22T12:14:40;99933.63;;;17.06;61.61
17260;BME280;8746;49.230;9.220;2024-03-22T12:17:06;99929.13;;;16.94;60.90
17260;BME280;8746;49.230;9.220;2024-03-22T12:19:32;99937.31;;;16.91;59.87
17260;BME280;8746;49.230;9.220;2024-03-22T12:21:58;99935.59;;;16.90;61.30
17260;BME280;8746;49.230;9.220;2024-03-22T12:24:23;99933.75;;;16.90;61.12
17260;BME280;8746;49.230;9.220;2024-03-22T12:26:49;99916.75;;;16.93;57.83
17260;BME280;8746;49.230;9.220;2024-03-22T12:29:15;99912.06;;;16.96;55.34
17260;BME280;8746;49.230;9.220;2024-03-22T12:31:41;99905.09;;;16.81;56.42
17260;BME280;8746;49.230;9.220;2024-03-22T12:34:07;99902.72;;;16.76;57.09
17260;BME280;8746;49.230;9.220;2024-03-22T12:36:32;99897.09;;;16.54;57.96
17260;BME280;8746;49.230;9.220;2024-03-22T12:38:58;99902.50;;;16.66;58.44
17260;BME280;8746;49.230;9.220;2024-03-22T12:41:23;99895.63;;;16.90;57.87
17260;BME280;8746;49.230;9.220;2024-03-22T12:43:48;99892.00;;;16.91;59.60
17260;BME280;8746;49.230;9.220;2024-03-22T12:46:14;99891.53;;;16.71;60.82
17260;BME280;8746;49.230;9.220;2024-03-22T12:48:39;99890.09;;;16.93;60.86
17260;BME280;8746;49.230;9.220;2024-03-22T12:51:05;99887.81;;;17.14;60.36
17260;BME280;8746;49.230;9.220;2024-03-22T12:53:31;99883.53;;;17.37;59.58